createdAt,value
2019-05-12T00:02:04.071Z,77.61
2019-05-12T00:07:09.822Z,78.34
2019-05-12T00:12:18.288Z,77.50
2019-05-12T00:17:23.482Z,76.83
2019-05-12T00:22:38.070Z,78.06
2019-05-12T00:27:42.693Z,76.48
2019-05-12T00:32:48.269Z,75.43
2019-05-12T00:37:53.784Z,72.54
2019-05-12T00:43:02.111Z,73.55
2019-05-12T00:48:09.204Z,74.24
2019-05-12T00:53:15.464Z,72.94
2019-05-12T00:58:20.936Z,73.30
2019-05-12T01:03:27.990Z,71.66
2019-05-12T01:08:33.890Z,72.03
2019-05-12T01:13:39.428Z,72.09
2019-05-12T01:18:44.893Z,72.52
2019-05-12T01:23:57.041Z,72.25
2019-05-12T01:28:58.168Z,71.57
2019-05-12T01:34:04.816Z,71.59
2019-05-12T01:39:10.385Z,70.63
2019-05-12T01:44:18.219Z,71.76
2019-05-12T01:49:23.400Z,72.31
2019-05-12T01:54:28.939Z,71.32
2019-05-12T01:59:34.449Z,72.27
2019-05-12T02:04:58.815Z,71.64
2019-05-12T02:10:09.112Z,71.62
2019-05-12T02:15:14.721Z,71.88
2019-05-12T02:20:25.080Z,71.55
2019-05-12T02:25:31.931Z,71.61
2019-05-12T02:30:41.440Z,70.78
2019-05-12T02:35:44.937Z,71.01
2019-05-12T02:40:50.480Z,71.31
2019-05-12T02:45:56.000Z,71.64
2019-05-12T02:51:05.376Z,71.45
2019-05-12T02:56:09.999Z,71.00
2019-05-12T03:01:16.335Z,70.87
2019-05-12T03:06:25.272Z,71.47
2019-05-12T03:11:35.393Z,70.79
2019-05-12T03:16:41.032Z,70.16
2019-05-12T03:21:46.477Z,70.32
2019-05-12T03:26:55.319Z,70.68
2019-05-12T03:32:00.043Z,70.95
2019-05-12T03:37:07.576Z,70.01
2019-05-12T03:42:14.518Z,69.27
2019-05-12T03:47:24.771Z,71.95
2019-05-12T03:52:28.639Z,71.94
2019-05-12T03:57:34.734Z,71.16
2019-05-12T04:02:40.444Z,70.61
2019-05-12T04:07:45.936Z,71.06
2019-05-12T04:12:54.664Z,71.85
2019-05-12T04:17:58.670Z,73.23
2019-05-12T04:23:06.977Z,71.61
2019-05-12T04:28:14.761Z,71.55
2019-05-12T04:33:19.868Z,69.25
2019-05-12T04:38:25.439Z,71.01
2019-05-12T04:43:30.984Z,71.60
2019-05-12T04:48:36.545Z,72.74
2019-05-12T04:53:44.839Z,71.82
2019-05-12T04:58:49.297Z,70.77
2019-05-12T05:03:54.821Z,69.37
2019-05-12T05:09:00.299Z,69.75
2019-05-12T05:14:08.296Z,69.13
2019-05-12T05:19:13.998Z,68.52
2019-05-12T05:24:19.587Z,68.80
2019-05-12T05:29:26.938Z,69.41
2019-05-12T05:34:34.285Z,68.80
2019-05-12T05:39:47.596Z,68.52
2019-05-12T05:44:46.852Z,68.97
2019-05-12T05:49:53.993Z,68.33
2019-05-12T05:54:59.482Z,67.54
2019-05-12T06:00:15.973Z,66.61
2019-05-12T06:05:14.475Z,68.68
2019-05-12T06:10:20.185Z,68.64
2019-05-12T06:15:29.807Z,67.63
2019-05-12T06:20:37.468Z,65.33
2019-05-12T06:25:47.358Z,66.49
2019-05-12T06:30:50.281Z,65.86
2019-05-12T06:35:55.900Z,65.35
2019-05-12T06:41:03.606Z,64.34
2019-05-12T06:46:11.748Z,65.54
2019-05-12T06:51:22.955Z,65.40
2019-05-12T06:56:25.165Z,67.92
2019-05-12T07:01:36.644Z,67.74
2019-05-12T07:06:44.106Z,66.45
2019-05-12T07:12:01.568Z,67.80
2019-05-12T07:17:02.828Z,67.21
2019-05-12T07:22:21.751Z,66.34
2019-05-12T07:27:15.590Z,68.02
2019-05-12T07:32:24.569Z,67.41
2019-05-12T07:37:30.131Z,66.79
2019-05-12T07:42:40.214Z,67.33
2019-05-12T07:47:51.455Z,68.89
2019-05-12T07:52:56.997Z,67.81
2019-05-12T07:58:10.277Z,67.10
2019-05-12T08:03:16.168Z,65.79
2019-05-12T08:08:18.239Z,66.81
2019-05-12T08:13:31.292Z,67.53
2019-05-12T08:18:36.768Z,66.77
2019-05-12T08:23:44.534Z,65.38
2019-05-12T08:28:54.528Z,67.21
2019-05-12T08:34:00.238Z,65.75
2019-05-12T08:39:11.822Z,65.29
2019-05-12T08:44:33.906Z,66.29
2019-05-12T08:49:46.058Z,64.24
2019-05-12T08:54:44.347Z,64.71
2019-05-12T08:59:46.888Z,62.67
2019-05-12T09:04:55.562Z,61.99
2019-05-12T09:10:04.137Z,62.99
2019-05-12T09:15:13.625Z,60.67
2019-05-12T09:20:19.676Z,61.14
2019-05-12T09:25:25.329Z,59.86
2019-05-12T09:30:34.035Z,58.88
2019-05-12T09:35:39.665Z,61.21
2019-05-12T09:40:52.846Z,59.04
2019-05-12T09:45:56.522Z,61.80
2019-05-12T09:51:05.848Z,56.11
2019-05-12T09:56:13.733Z,56.17
2019-05-12T10:01:21.154Z,56.36
2019-05-12T10:06:26.806Z,55.91
2019-05-12T10:11:32.972Z,56.76
2019-05-12T10:16:39.479Z,51.58
2019-05-12T10:21:49.032Z,53.99
2019-05-12T10:26:54.191Z,52.47
2019-05-12T10:32:00.189Z,51.81
2019-05-12T10:37:06.542Z,53.84
2019-05-12T10:42:13.698Z,51.96
2019-05-12T10:47:23.778Z,50.53
2019-05-12T10:52:29.369Z,48.50
2019-05-12T10:57:36.888Z,47.44
2019-05-12T11:02:44.646Z,48.67
2019-05-12T11:07:53.957Z,48.72
2019-05-12T11:13:05.779Z,49.27
2019-05-12T11:18:20.723Z,46.33
2019-05-12T11:23:24.488Z,45.97
2019-05-12T11:28:30.568Z,47.71
2019-05-12T11:33:36.713Z,46.47
2019-05-12T11:38:46.620Z,46.52
2019-05-12T11:43:53.560Z,47.49
2019-05-12T11:48:59.843Z,46.66
2019-05-12T11:54:13.653Z,45.27
2019-05-12T11:59:23.735Z,46.23
2019-05-12T12:04:45.681Z,45.30
2019-05-12T12:09:56.218Z,44.01
2019-05-12T12:14:59.005Z,40.16
2019-05-12T12:20:13.936Z,43.22
2019-05-12T12:25:23.503Z,42.57
2019-05-12T12:30:31.179Z,43.04
2019-05-12T12:35:36.902Z,40.15
2019-05-12T12:40:44.125Z,42.13
2019-05-12T12:46:18.260Z,41.98
2019-05-12T12:51:20.705Z,39.97
2019-05-12T12:56:30.066Z,39.74
2019-05-12T13:01:35.818Z,39.11
2019-05-12T13:06:43.675Z,36.77
2019-05-12T13:11:48.704Z,36.77
2019-05-12T13:16:56.004Z,39.21
2019-05-12T13:22:03.738Z,38.34
2019-05-12T13:32:14.919Z,39.02
2019-05-12T13:37:23.070Z,35.68
2019-05-12T13:49:06.660Z,35.37
2019-05-12T13:54:14.350Z,34.58
2019-05-12T13:59:23.470Z,33.37
2019-05-12T14:04:37.247Z,34.86
2019-05-12T14:09:44.221Z,34.15
2019-05-12T14:14:49.876Z,32.01
2019-05-12T14:19:55.470Z,33.02
2019-05-12T14:25:02.204Z,34.40
2019-05-12T14:30:11.456Z,31.40
2019-05-12T14:35:17.659Z,31.42
2019-05-12T14:40:42.850Z,33.32
2019-05-12T14:45:54.170Z,33.37
2019-05-12T14:51:05.535Z,32.76
2019-05-12T14:56:15.177Z,32.55
2019-05-12T15:01:23.957Z,32.34
2019-05-12T15:06:31.330Z,32.71
2019-05-12T15:11:37.129Z,33.76
2019-05-12T15:16:44.878Z,33.38
2019-05-12T15:21:50.410Z,33.36
2019-05-12T15:27:00.692Z,33.41
2019-05-12T15:32:10.037Z,34.29
2019-05-12T15:37:15.864Z,34.36
2019-05-12T15:42:23.506Z,33.19
2019-05-12T15:47:32.259Z,34.40
2019-05-12T15:52:42.341Z,34.33
2019-05-12T15:57:46.342Z,34.50
2019-05-12T16:02:53.422Z,34.61
2019-05-12T16:08:03.636Z,34.74
2019-05-12T16:13:11.041Z,35.61
2019-05-12T16:18:16.761Z,36.40
2019-05-12T16:23:29.648Z,35.99
2019-05-12T16:28:29.919Z,35.62
2019-05-12T16:33:36.538Z,35.91
2019-05-12T16:38:50.002Z,35.56
2019-05-12T16:43:53.741Z,37.04
2019-05-12T16:48:59.566Z,36.41
2019-05-12T16:54:07.439Z,36.92
2019-05-12T16:59:17.172Z,38.52
2019-05-12T17:04:27.758Z,37.94
2019-05-12T17:09:28.370Z,37.32
2019-05-12T17:14:38.675Z,37.66
2019-05-12T17:19:43.320Z,37.93
2019-05-12T17:24:50.897Z,38.44
2019-05-12T17:29:58.338Z,37.95
2019-05-12T17:35:09.875Z,37.77
2019-05-12T17:40:20.071Z,37.03
2019-05-12T17:45:26.522Z,37.96
2019-05-12T17:50:34.591Z,39.72
2019-05-12T17:55:50.596Z,38.99
2019-05-12T18:00:56.233Z,39.88
2019-05-12T18:06:06.244Z,38.83
2019-05-12T18:11:16.068Z,39.77
2019-05-12T18:16:22.681Z,40.04
2019-05-12T18:21:31.747Z,40.83
2019-05-12T18:26:40.521Z,41.66
2019-05-12T18:31:46.396Z,40.52
2019-05-12T18:36:58.134Z,39.86
2019-05-12T18:42:05.866Z,40.67
2019-05-12T18:47:16.348Z,41.42
2019-05-12T18:52:23.450Z,40.49
2019-05-12T18:57:42.837Z,40.90
2019-05-12T19:02:46.391Z,40.56
2019-05-12T19:07:54.333Z,41.99
2019-05-12T19:13:06.759Z,41.45
2019-05-12T19:18:18.091Z,41.09
2019-05-12T19:23:26.944Z,41.36
2019-05-12T19:28:34.529Z,40.95
2019-05-12T19:33:51.599Z,41.71
2019-05-12T19:38:56.922Z,41.55
2019-05-12T19:44:04.095Z,41.65
2019-05-12T19:49:10.757Z,41.14
2019-05-12T19:54:19.347Z,40.99
2019-05-12T19:59:26.410Z,40.85
2019-05-12T20:04:36.546Z,40.94
2019-05-12T20:09:54.960Z,40.29
2019-05-12T20:14:56.882Z,39.47
2019-05-12T20:20:01.375Z,40.19
2019-05-12T20:25:08.704Z,40.33
2019-05-12T20:30:20.966Z,40.29
2019-05-12T20:35:24.451Z,39.92
2019-05-12T20:40:32.094Z,40.04
2019-05-12T20:45:42.299Z,40.53
2019-05-12T20:50:51.696Z,40.03
2019-05-12T20:55:58.759Z,39.72
2019-05-12T21:01:08.710Z,40.66
2019-05-12T21:06:18.433Z,38.65
2019-05-12T21:11:24.478Z,38.51
2019-05-12T21:16:34.459Z,39.14
2019-05-12T21:21:41.738Z,39.95
2019-05-12T21:26:47.462Z,38.37
2019-05-12T21:31:53.206Z,36.60
2019-05-12T21:37:04.609Z,36.27
2019-05-12T21:42:15.289Z,37.87
2019-05-12T21:47:24.394Z,38.77
2019-05-12T21:52:37.253Z,38.26
2019-05-12T21:57:37.245Z,37.13
2019-05-12T22:02:43.102Z,37.01
2019-05-12T22:07:48.777Z,38.04
2019-05-12T22:12:54.773Z,38.19
2019-05-12T22:18:00.333Z,37.66
2019-05-12T22:23:11.774Z,38.61
2019-05-12T22:28:15.627Z,39.62
2019-05-12T22:33:21.398Z,39.21
2019-05-12T22:38:26.879Z,40.60
2019-05-12T22:43:40.840Z,39.63
2019-05-12T22:48:40.786Z,41.22
2019-05-12T22:53:46.871Z,41.27
2019-05-12T22:59:00.231Z,41.23
2019-05-12T23:04:00.225Z,41.07
2019-05-12T23:09:10.408Z,41.52
2019-05-12T23:14:20.730Z,40.51
2019-05-12T23:19:23.587Z,40.31
2019-05-12T23:24:30.298Z,40.36
2019-05-12T23:29:45.261Z,39.72
2019-05-12T23:34:54.072Z,40.99
2019-05-12T23:40:00.293Z,40.01
2019-05-12T23:45:06.418Z,40.12
2019-05-12T23:50:14.109Z,40.88
2019-05-12T23:55:20.032Z,42.24
